Impacts TAF Board INFO
FOR SITUATIONAL AWARENESS. NOT TO BE USED FOR FLIGHT PLANNING PURPOSES.
IDs:

KATL - Atlanta/Hartsfield-J, GA, US

Issued at 1353 UTC 19 Nov 2017
Updated at 1404 UTC 19 Nov 2017
Potential Impact None Slight Moderate High
Time1352Z 19/15Z 19/16Z 19/17Z 19/18Z 19/19Z 19/20Z 19/21Z 19/22Z 19/23Z 20/00Z 20/01Z 20/02Z 20/03Z>>
Type OBS PRVL PRVL PRVL PRVL PRVL PRVL PRVL PRVL PRVL PRVL PRVL PRVL PRVL
VIS 10 >6 >6 >6 >6 >6 >6 >6 >6 >6 >6 >6 >6 >6
CIG -- -- -- -- -- -- -- -- -- -- -- -- -- --
Cover FEW SCT SKC SKC SKC SKC SKC SKC SKC SKC SKC SKC SKC SKC
FltCat VFR VFR VFR VFR VFR VFR VFR VFR VFR VFR VFR VFR VFR VFR
WX -- -- -- -- -- -- -- -- -- -- -- -- -- --
WDir 340 320 320 320 320 320 320 320 320 320 320 320 330 330
WSpd 13 18 15 15 15 15 15 15 15 15 15 15 12 12
WGst 26 25 25 25 25 25 25 25 25 25 25 25 -- --

Raw TAF
KATL 191353Z 1914/2018 32018G25KT P6SM SCT030
  FM191600 32015G25KT P6SM SKC
  FM200200 33012KT P6SM SKC
  FM201300 02005KT P6SM SKC


Raw METAR
KATL 191352Z 34013G26KT 10SM FEW026 07/01 A3001 RMK AO2 PK WND 33026/1346 SLP161 T00720011
KATL 191328Z 35016KT 10SM SCT026 07/01 A3000 RMK AO2 T00720011
KATL 191252Z 33016G20KT 10SM BKN026 07/02 A2999 RMK AO2 SLP155 BKN026 V SCT T00670017
KATL 191152Z 32014G23KT 10SM BKN027 07/02 A2997 RMK AO2 SLP149 60000 70030 T00720022 10117 20072 53028

METAR Board
Radar Display
Forecast Discussion

FOR SITUATIONAL AWARENESS. NOT TO BE USED FOR FLIGHT PLANNING PURPOSES.